createdAt,value
2018-06-09T00:00:14.084Z,22.62
2018-06-09T00:02:43.931Z,22.60
2018-06-09T00:05:12.925Z,22.59
2018-06-09T00:07:41.988Z,22.57
2018-06-09T00:10:10.925Z,22.54
2018-06-09T00:12:40.138Z,22.49
2018-06-09T00:15:10.087Z,22.45
2018-06-09T00:17:39.703Z,22.38
2018-06-09T00:20:09.509Z,22.30
2018-06-09T00:22:38.435Z,22.24
2018-06-09T00:25:07.449Z,22.16
2018-06-09T00:27:37.083Z,22.08
2018-06-09T00:30:06.401Z,22.01
2018-06-09T00:32:35.375Z,21.97
2018-06-09T00:35:04.503Z,21.91
2018-06-09T00:37:33.440Z,21.85
2018-06-09T00:40:02.371Z,21.79
2018-06-09T00:42:31.485Z,21.72
2018-06-09T00:45:00.443Z,21.68
2018-06-09T00:47:29.472Z,21.64
2018-06-09T00:49:59.810Z,21.59
2018-06-09T00:52:28.702Z,21.55
2018-06-09T00:54:57.609Z,21.49
2018-06-09T00:57:26.583Z,21.47
2018-06-09T00:59:55.618Z,21.45
2018-06-09T01:02:24.554Z,21.37
2018-06-09T01:04:53.621Z,21.30
2018-06-09T01:07:23.769Z,21.30
2018-06-09T01:09:52.766Z,21.26
2018-06-09T01:12:22.759Z,21.22
2018-06-09T01:14:52.248Z,21.23
2018-06-09T01:17:21.364Z,21.20
2018-06-09T01:19:51.454Z,21.22
2018-06-09T01:22:20.519Z,21.25
2018-06-09T01:24:49.415Z,21.25
2018-06-09T01:27:19.661Z,21.27
2018-06-09T01:29:49.672Z,21.26
2018-06-09T01:32:19.547Z,21.26
2018-06-09T01:34:48.551Z,21.25
2018-06-09T01:37:17.589Z,21.21
2018-06-09T01:39:46.554Z,21.20
2018-06-09T01:42:15.479Z,21.19
2018-06-09T01:44:44.468Z,21.18
2018-06-09T01:47:13.792Z,21.24
2018-06-09T01:49:44.152Z,21.31
2018-06-09T01:52:13.127Z,21.31
2018-06-09T01:54:42.041Z,21.27
2018-06-09T01:57:12.275Z,21.25
2018-06-09T01:59:42.288Z,21.25
2018-06-09T02:02:12.030Z,21.26
2018-06-09T02:04:41.483Z,21.27
2018-06-09T02:07:10.897Z,21.25
2018-06-09T02:09:39.819Z,21.24
2018-06-09T02:12:08.883Z,21.21
2018-06-09T02:14:37.783Z,21.18
2018-06-09T02:17:06.806Z,21.13
2018-06-09T02:19:35.843Z,21.11
2018-06-09T02:22:04.819Z,21.12
2018-06-09T02:24:34.500Z,21.12
2018-06-09T02:27:03.558Z,21.13
2018-06-09T02:29:32.512Z,21.14
2018-06-09T02:32:01.472Z,21.14
2018-06-09T02:34:31.014Z,21.06
2018-06-09T02:37:00.041Z,21.05
2018-06-09T02:39:29.020Z,21.05
2018-06-09T02:41:58.072Z,21.07
2018-06-09T02:44:27.026Z,21.09
2018-06-09T02:46:55.955Z,21.09
2018-06-09T02:49:25.023Z,21.05
2018-06-09T02:51:54.133Z,21.04
2018-06-09T02:54:23.136Z,21.05
2018-06-09T02:56:52.195Z,21.06
2018-06-09T02:59:21.116Z,21.04
2018-06-09T03:01:50.098Z,21.05
2018-06-09T03:04:20.024Z,21.08
2018-06-09T03:06:48.958Z,21.12
2018-06-09T03:09:17.871Z,21.11
2018-06-09T03:11:47.282Z,21.08
2018-06-09T03:14:17.201Z,21.05
2018-06-09T03:16:46.109Z,21.03
2018-06-09T03:19:15.785Z,21.00
2018-06-09T03:21:44.711Z,21.02
2018-06-09T03:24:13.624Z,21.05
2018-06-09T03:26:42.687Z,21.06
2018-06-09T03:29:11.676Z,21.10
2018-06-09T03:31:41.163Z,21.13
2018-06-09T03:34:10.236Z,21.18
2018-06-09T03:36:39.243Z,21.20
2018-06-09T03:39:08.820Z,21.22
2018-06-09T03:41:37.783Z,21.26
2018-06-09T03:44:07.389Z,21.29
2018-06-09T03:46:36.331Z,21.32
2018-06-09T03:49:05.549Z,21.37
2018-06-09T03:51:35.546Z,21.39
2018-06-09T03:54:04.515Z,21.44
2018-06-09T03:56:33.527Z,21.52
2018-06-09T03:59:02.473Z,21.55
2018-06-09T04:01:31.448Z,21.55
2018-06-09T04:04:00.600Z,21.59
2018-06-09T04:06:29.569Z,21.61
2018-06-09T04:08:58.467Z,21.65
2018-06-09T04:11:27.583Z,21.70
2018-06-09T04:13:56.589Z,21.77
2018-06-09T04:16:25.615Z,21.83
2018-06-09T04:18:55.137Z,21.83
2018-06-09T04:21:24.371Z,21.87
2018-06-09T04:23:53.337Z,21.93
2018-06-09T04:26:22.307Z,22.04
2018-06-09T04:28:51.217Z,22.08
2018-06-09T04:31:20.163Z,22.10
2018-06-09T04:33:49.197Z,22.11
2018-06-09T04:36:18.128Z,22.23
2018-06-09T04:38:47.048Z,22.27
2018-06-09T04:41:16.057Z,22.36
2018-06-09T04:43:45.044Z,22.40
2018-06-09T04:46:14.024Z,22.49
2018-06-09T04:48:43.741Z,22.61
2018-06-09T04:51:13.230Z,22.67
2018-06-09T04:53:42.188Z,22.70
2018-06-09T04:56:11.282Z,22.77
2018-06-09T04:58:41.197Z,22.84
2018-06-09T05:01:10.138Z,22.89
2018-06-09T05:03:39.090Z,22.92
2018-06-09T05:06:08.051Z,23.04
2018-06-09T05:08:37.502Z,23.16
2018-06-09T05:11:06.506Z,23.35
2018-06-09T05:13:35.520Z,23.50
2018-06-09T05:16:04.534Z,23.72
2018-06-09T05:18:33.569Z,23.97
2018-06-09T05:21:02.678Z,24.08
2018-06-09T05:23:31.695Z,24.15
2018-06-09T05:26:00.860Z,24.20
2018-06-09T05:28:29.764Z,24.33
2018-06-09T05:30:58.772Z,24.41
2018-06-09T05:33:27.818Z,24.60
2018-06-09T05:35:57.836Z,24.79
2018-06-09T05:38:26.791Z,24.93
2018-06-09T05:40:55.748Z,25.12
2018-06-09T05:43:24.715Z,25.31
2018-06-09T05:45:54.207Z,25.59
2018-06-09T05:48:23.841Z,25.86
2018-06-09T05:50:52.839Z,26.00
2018-06-09T05:53:22.429Z,26.10
2018-06-09T05:55:51.576Z,26.29
2018-06-09T05:58:20.547Z,26.43
2018-06-09T06:00:49.665Z,26.58
2018-06-09T06:03:18.802Z,26.69
2018-06-09T06:05:48.248Z,26.90
2018-06-09T06:08:17.257Z,27.06
2018-06-09T06:10:46.470Z,27.12
2018-06-09T06:13:15.547Z,27.25
2018-06-09T06:15:44.538Z,27.08
2018-06-09T06:18:13.574Z,26.98
2018-06-09T06:20:42.707Z,26.79
2018-06-09T06:23:11.647Z,27.11
2018-06-09T06:25:40.907Z,27.41
2018-06-09T06:28:10.285Z,27.54
2018-06-09T06:30:39.294Z,27.83
2018-06-09T06:33:08.329Z,28.00
2018-06-09T06:35:37.318Z,27.78
2018-06-09T06:38:06.353Z,27.79
2018-06-09T06:40:35.455Z,27.69
2018-06-09T06:43:04.392Z,27.66
2018-06-09T06:45:33.998Z,27.76
2018-06-09T06:48:02.977Z,27.91
2018-06-09T06:50:31.918Z,28.00
2018-06-09T06:53:00.846Z,28.07
2018-06-09T06:55:30.157Z,28.28
2018-06-09T06:57:59.071Z,28.33
2018-06-09T07:00:28.063Z,28.53
2018-06-09T07:02:57.081Z,28.75
2018-06-09T07:05:26.108Z,28.94
2018-06-09T07:07:55.102Z,28.93
2018-06-09T07:10:27.388Z,28.97
2018-06-09T07:12:58.167Z,28.90
2018-06-09T07:15:27.236Z,29.00
2018-06-09T07:17:56.241Z,29.18
2018-06-09T07:20:25.190Z,29.39
2018-06-09T07:22:54.196Z,29.37
2018-06-09T07:25:23.204Z,29.07
2018-06-09T07:27:53.078Z,29.02
2018-06-09T07:30:22.269Z,28.92
2018-06-09T07:32:52.256Z,28.89
2018-06-09T07:35:21.224Z,28.80
2018-06-09T07:37:50.333Z,28.19
2018-06-09T07:40:19.273Z,28.17
2018-06-09T07:42:48.700Z,27.99
2018-06-09T07:45:17.741Z,28.00
2018-06-09T07:47:46.836Z,27.83
2018-06-09T07:50:15.873Z,27.81
2018-06-09T07:52:45.776Z,27.93
2018-06-09T07:55:15.593Z,27.92
2018-06-09T07:57:44.518Z,28.00
2018-06-09T08:00:13.544Z,27.91
2018-06-09T08:02:42.524Z,28.02
2018-06-09T08:05:11.969Z,28.31
2018-06-09T08:07:41.023Z,28.60
2018-06-09T08:10:09.962Z,28.72
2018-06-09T08:12:38.918Z,28.86
2018-06-09T08:15:08.000Z,29.00
2018-06-09T08:17:36.924Z,29.13
2018-06-09T08:20:06.375Z,29.32
2018-06-09T08:22:36.380Z,29.44
2018-06-09T08:25:05.412Z,29.68
2018-06-09T08:27:34.433Z,29.63
2018-06-09T08:30:03.728Z,29.66
2018-06-09T08:32:32.681Z,29.51
2018-06-09T08:35:01.610Z,29.84
2018-06-09T08:37:31.165Z,30.06
2018-06-09T08:40:00.174Z,30.06
2018-06-09T08:42:29.207Z,30.08
2018-06-09T08:44:58.251Z,30.12
2018-06-09T08:47:27.988Z,30.04
2018-06-09T08:49:56.968Z,29.97
2018-06-09T08:52:25.959Z,30.04
2018-06-09T08:54:54.881Z,30.14
2018-06-09T08:57:23.870Z,29.95
2018-06-09T08:59:52.987Z,30.19
2018-06-09T09:02:21.912Z,30.33
2018-06-09T09:04:50.899Z,30.55
2018-06-09T09:07:20.026Z,30.80
2018-06-09T09:09:49.065Z,31.00
2018-06-09T09:12:18.601Z,31.13
2018-06-09T09:14:47.810Z,31.10
2018-06-09T09:17:16.781Z,31.24
2018-06-09T09:19:45.761Z,31.41
2018-06-09T09:22:15.372Z,31.41
2018-06-09T09:24:44.325Z,31.52
2018-06-09T09:27:13.315Z,31.34
2018-06-09T09:29:42.371Z,31.30
2018-06-09T09:32:11.981Z,31.46
2018-06-09T09:34:41.003Z,31.74
2018-06-09T09:37:10.700Z,31.80
2018-06-09T09:39:39.648Z,31.91
2018-06-09T09:42:08.583Z,32.00
2018-06-09T09:44:37.764Z,31.61
2018-06-09T09:47:06.973Z,31.78
2018-06-09T09:49:35.969Z,31.68
2018-06-09T09:52:04.960Z,31.92
2018-06-09T09:54:33.879Z,31.75
2018-06-09T09:57:02.876Z,31.70
2018-06-09T09:59:32.044Z,31.89
2018-06-09T10:02:01.116Z,31.64
2018-06-09T10:04:30.173Z,31.55
2018-06-09T10:06:59.185Z,31.47
2018-06-09T10:09:28.777Z,31.37
2018-06-09T10:11:57.729Z,31.52
2018-06-09T10:14:26.873Z,31.86
2018-06-09T10:16:56.434Z,31.80
2018-06-09T10:19:25.394Z,31.92
2018-06-09T10:21:54.445Z,31.91
2018-06-09T10:24:23.375Z,31.88
2018-06-09T10:26:52.408Z,32.03
2018-06-09T10:29:22.181Z,32.02
2018-06-09T10:31:51.764Z,32.02
2018-06-09T10:34:22.931Z,31.89
2018-06-09T10:36:51.887Z,31.99
2018-06-09T10:39:20.907Z,32.28
2018-06-09T10:41:50.626Z,32.52
2018-06-09T10:44:19.544Z,32.58
2018-06-09T10:46:48.466Z,32.33
2018-06-09T10:49:17.517Z,32.39
2018-06-09T10:51:46.482Z,32.57
2018-06-09T10:54:15.502Z,32.65
2018-06-09T10:56:44.505Z,32.77
2018-06-09T10:59:13.508Z,32.87
2018-06-09T11:01:42.510Z,32.96
2018-06-09T11:04:11.460Z,33.11
2018-06-09T11:06:40.470Z,33.43
2018-06-09T11:09:10.061Z,33.49
2018-06-09T11:11:41.040Z,33.46
2018-06-09T11:14:09.995Z,33.56
2018-06-09T11:16:39.005Z,33.71
2018-06-09T11:19:08.045Z,34.03
2018-06-09T11:21:40.594Z,34.03
2018-06-09T11:24:12.557Z,33.72
2018-06-09T11:26:42.193Z,33.37
2018-06-09T11:29:14.677Z,33.32
2018-06-09T11:31:43.662Z,33.46
2018-06-09T11:34:12.671Z,33.28
2018-06-09T11:36:41.873Z,33.39
2018-06-09T11:39:10.776Z,33.42
2018-06-09T11:41:39.833Z,33.53
2018-06-09T11:44:09.277Z,33.75
2018-06-09T11:46:38.319Z,34.01
2018-06-09T11:49:07.227Z,34.03
2018-06-09T11:51:36.277Z,33.99
2018-06-09T11:54:05.284Z,33.98
2018-06-09T11:56:34.270Z,33.99
2018-06-09T11:59:03.385Z,33.89
2018-06-09T12:01:32.395Z,33.86
2018-06-09T12:04:01.301Z,33.74
2018-06-09T12:06:30.722Z,33.63
2018-06-09T12:09:00.292Z,33.63
2018-06-09T12:11:29.427Z,33.79
2018-06-09T12:13:58.454Z,33.95
2018-06-09T12:16:27.389Z,34.06
2018-06-09T12:18:56.336Z,34.17
2018-06-09T12:21:25.356Z,34.04
2018-06-09T12:23:54.479Z,33.58
2018-06-09T12:26:23.469Z,33.57
2018-06-09T12:28:53.222Z,33.51
2018-06-09T12:31:22.211Z,33.55
2018-06-09T12:33:51.201Z,33.72
2018-06-09T12:36:20.182Z,33.87
2018-06-09T12:38:49.197Z,33.85
2018-06-09T12:41:18.628Z,33.84
2018-06-09T12:43:47.728Z,33.94
2018-06-09T12:46:16.751Z,34.07
2018-06-09T12:48:45.700Z,34.04
2018-06-09T12:51:14.740Z,33.76
2018-06-09T12:53:43.728Z,33.69
2018-06-09T12:56:12.639Z,33.69
2018-06-09T12:58:41.728Z,33.60
2018-06-09T13:01:10.652Z,33.48
2018-06-09T13:03:39.584Z,33.39
2018-06-09T13:06:08.757Z,33.43
2018-06-09T13:08:37.697Z,33.19
2018-06-09T13:11:06.621Z,33.07
2018-06-09T13:13:35.693Z,32.99
2018-06-09T13:16:04.682Z,32.88
2018-06-09T13:18:33.615Z,32.87
2018-06-09T13:21:02.700Z,32.78
2018-06-09T13:23:31.669Z,32.64
2018-06-09T13:26:01.611Z,32.66
2018-06-09T13:28:30.652Z,32.74
2018-06-09T13:30:59.795Z,32.78
2018-06-09T13:33:28.804Z,32.69
2018-06-09T13:35:57.997Z,32.73
2018-06-09T13:38:27.463Z,32.81
2018-06-09T13:40:56.540Z,32.77
2018-06-09T13:43:25.625Z,32.74
2018-06-09T13:45:54.543Z,32.77
2018-06-09T13:48:23.503Z,32.78
2018-06-09T13:50:52.515Z,32.80
2018-06-09T13:53:22.324Z,32.80
2018-06-09T13:55:51.219Z,32.81
2018-06-09T13:58:20.184Z,32.90
2018-06-09T14:00:49.173Z,32.97
2018-06-09T14:03:18.788Z,32.90
2018-06-09T14:05:48.470Z,32.88
2018-06-09T14:08:17.393Z,32.89
2018-06-09T14:10:46.304Z,32.68
2018-06-09T14:13:15.409Z,32.52
2018-06-09T14:15:44.292Z,32.46
2018-06-09T14:18:13.251Z,32.41
2018-06-09T14:20:42.315Z,32.28
2018-06-09T14:23:11.226Z,32.17
2018-06-09T14:25:40.123Z,32.08
2018-06-09T14:28:09.304Z,31.90
2018-06-09T14:30:38.325Z,31.82
2018-06-09T14:33:08.992Z,31.77
2018-06-09T14:35:38.137Z,31.69
2018-06-09T14:38:07.029Z,31.63
2018-06-09T14:40:35.974Z,31.64
2018-06-09T14:43:05.364Z,31.63
2018-06-09T14:45:34.308Z,31.53
2018-06-09T14:48:03.357Z,31.48
2018-06-09T14:50:32.328Z,31.43
2018-06-09T14:53:01.325Z,31.36
2018-06-09T14:55:30.352Z,31.23
2018-06-09T14:57:59.650Z,31.18
2018-06-09T15:00:28.557Z,31.16
2018-06-09T15:02:57.490Z,31.17
2018-06-09T15:05:26.576Z,31.17
2018-06-09T15:07:55.557Z,31.15
2018-06-09T15:10:25.048Z,31.17
2018-06-09T15:12:54.036Z,31.16
2018-06-09T15:15:23.540Z,31.17
2018-06-09T15:17:52.504Z,31.18
2018-06-09T15:20:21.584Z,31.15
2018-06-09T15:22:50.663Z,31.12
2018-06-09T15:25:19.683Z,31.13
2018-06-09T15:27:48.848Z,31.10
2018-06-09T15:30:17.949Z,31.04
2018-06-09T15:32:47.901Z,31.01
2018-06-09T15:35:16.882Z,31.02
2018-06-09T15:37:45.892Z,31.04
2018-06-09T15:40:14.824Z,31.04
2018-06-09T15:42:43.882Z,30.99
2018-06-09T15:45:12.899Z,31.00
2018-06-09T15:47:41.848Z,31.01
2018-06-09T15:50:10.909Z,30.99
2018-06-09T15:52:39.918Z,30.93
2018-06-09T15:55:09.469Z,30.90
2018-06-09T15:57:38.542Z,30.86
2018-06-09T16:00:07.488Z,30.82
2018-06-09T16:02:36.846Z,30.73
2018-06-09T16:05:05.917Z,30.69
2018-06-09T16:07:34.915Z,30.63
2018-06-09T16:10:04.443Z,30.59
2018-06-09T16:12:33.498Z,30.59
2018-06-09T16:15:02.545Z,30.59
2018-06-09T16:17:31.479Z,30.60
2018-06-09T16:20:00.530Z,30.59
2018-06-09T16:22:29.462Z,30.58
2018-06-09T16:24:58.483Z,30.59
2018-06-09T16:27:27.545Z,30.55
2018-06-09T16:29:56.441Z,30.54
2018-06-09T16:32:25.408Z,30.53
2018-06-09T16:34:54.419Z,30.52
2018-06-09T16:37:23.423Z,30.48
2018-06-09T16:39:52.999Z,30.43
2018-06-09T16:42:22.032Z,30.38
2018-06-09T16:47:25.656Z,30.16
2018-06-09T16:49:55.141Z,30.10
2018-06-09T16:52:24.072Z,30.04
2018-06-09T16:54:53.146Z,29.98
2018-06-09T16:57:22.060Z,29.91
2018-06-09T16:59:50.990Z,29.87
2018-06-09T17:04:54.199Z,29.77
2018-06-09T17:07:23.172Z,29.70
2018-06-09T17:09:52.158Z,29.62
2018-06-09T17:12:21.073Z,29.55
2018-06-09T17:17:24.217Z,29.17
2018-06-09T17:19:55.128Z,29.02
2018-06-09T17:22:24.108Z,28.85
2018-06-09T17:24:53.050Z,28.74
2018-06-09T17:27:21.995Z,28.66
2018-06-09T17:29:50.887Z,28.46
2018-06-09T17:32:19.905Z,28.36
2018-06-09T17:34:48.864Z,28.25
2018-06-09T17:37:17.795Z,28.17
2018-06-09T17:39:53.824Z,28.06
2018-06-09T17:42:22.766Z,27.99
2018-06-09T17:44:51.757Z,27.85
2018-06-09T17:47:20.799Z,27.80
2018-06-09T17:49:49.812Z,27.70
2018-06-09T17:52:18.868Z,27.56
2018-06-09T17:54:47.876Z,27.39
2018-06-09T17:57:16.832Z,27.33
2018-06-09T17:59:45.766Z,27.26
2018-06-09T18:02:14.729Z,27.15
2018-06-09T18:04:43.777Z,27.09
2018-06-09T18:07:13.191Z,27.03
2018-06-09T18:09:42.205Z,26.93
2018-06-09T18:12:11.187Z,26.91
2018-06-09T18:14:40.229Z,26.88
2018-06-09T18:17:09.292Z,26.81
2018-06-09T18:19:38.338Z,26.79
2018-06-09T18:22:07.271Z,26.75
2018-06-09T18:24:36.236Z,26.65
2018-06-09T18:27:05.456Z,26.57
2018-06-09T18:29:34.480Z,26.51
2018-06-09T18:32:03.636Z,26.43
2018-06-09T18:34:32.596Z,26.36
2018-06-09T18:37:01.568Z,26.29
2018-06-09T18:39:30.626Z,26.23
2018-06-09T18:41:59.589Z,26.15
2018-06-09T18:44:28.580Z,26.08
2018-06-09T18:46:57.524Z,26.03
2018-06-09T18:49:26.518Z,25.90
2018-06-09T18:51:55.531Z,25.84
2018-06-09T18:54:24.599Z,25.79
2018-06-09T18:56:53.809Z,25.74
2018-06-09T18:59:22.717Z,25.53
2018-06-09T19:01:51.696Z,25.51
2018-06-09T19:04:20.764Z,25.45
2018-06-09T19:06:49.705Z,25.38
2018-06-09T19:09:18.952Z,25.31
2018-06-09T19:11:47.924Z,25.22
2018-06-09T19:14:16.847Z,25.15
2018-06-09T19:16:45.939Z,25.13
2018-06-09T19:19:14.906Z,25.01
2018-06-09T19:21:43.935Z,24.91
2018-06-09T19:24:13.022Z,24.88
2018-06-09T19:26:45.159Z,24.86
2018-06-09T19:29:14.201Z,24.76
2018-06-09T19:31:43.140Z,24.70
2018-06-09T19:34:12.120Z,24.62
2018-06-09T19:36:41.114Z,24.58
2018-06-09T19:39:10.040Z,24.52
2018-06-09T19:41:38.956Z,24.48
2018-06-09T19:44:07.951Z,24.48
2018-06-09T19:46:36.928Z,24.44
2018-06-09T19:49:05.988Z,24.39
2018-06-09T19:51:35.102Z,24.34
2018-06-09T19:54:04.188Z,24.29
2018-06-09T19:56:33.172Z,24.24
2018-06-09T19:59:02.122Z,24.18
2018-06-09T20:01:31.724Z,24.16
2018-06-09T20:04:00.627Z,24.20
2018-06-09T20:06:30.431Z,24.23
2018-06-09T20:08:59.347Z,24.20
2018-06-09T20:11:28.292Z,24.19
2018-06-09T20:13:57.256Z,24.21
2018-06-09T20:16:26.831Z,24.15
2018-06-09T20:18:56.698Z,24.12
2018-06-09T20:21:25.721Z,24.11
2018-06-09T20:23:54.647Z,24.14
2018-06-09T20:26:23.551Z,24.11
2018-06-09T20:28:52.757Z,24.12
2018-06-09T20:31:22.094Z,24.06
2018-06-09T20:33:51.086Z,24.09
2018-06-09T20:36:20.185Z,24.10
2018-06-09T20:38:50.170Z,24.05
2018-06-09T20:41:19.102Z,24.02
2018-06-09T20:43:48.261Z,24.03
2018-06-09T20:46:17.227Z,24.03
2018-06-09T20:48:46.941Z,24.00
2018-06-09T20:51:15.989Z,23.96
2018-06-09T20:53:44.976Z,23.91
2018-06-09T20:56:14.019Z,23.93
2018-06-09T20:58:43.057Z,23.98
2018-06-09T21:01:12.792Z,23.93
2018-06-09T21:03:42.822Z,23.91
2018-06-09T21:06:12.703Z,23.90
2018-06-09T21:08:41.654Z,23.83
2018-06-09T21:11:10.579Z,23.80
2018-06-09T21:13:39.538Z,23.75
2018-06-09T21:16:08.453Z,23.74
2018-06-09T21:18:37.413Z,23.65
2018-06-09T21:21:07.501Z,23.64
2018-06-09T21:23:36.987Z,23.64
2018-06-09T21:26:06.037Z,23.64
2018-06-09T21:28:40.213Z,23.56
2018-06-09T21:31:14.374Z,23.54
2018-06-09T21:33:59.224Z,23.54
2018-06-09T21:36:28.324Z,23.53
2018-06-09T21:39:00.654Z,23.48
2018-06-09T21:41:36.249Z,23.45
2018-06-09T21:44:10.392Z,23.44
2018-06-09T21:46:44.330Z,23.40
2018-06-09T21:49:13.889Z,23.42
2018-06-09T21:51:42.807Z,23.39
2018-06-09T21:54:13.411Z,23.38
2018-06-09T21:56:43.314Z,23.35
2018-06-09T21:59:12.376Z,23.23
2018-06-09T22:01:41.421Z,23.19
2018-06-09T22:04:10.396Z,23.17
2018-06-09T22:06:39.425Z,23.19
2018-06-09T22:09:09.075Z,23.18
2018-06-09T22:11:38.932Z,23.20
2018-06-09T22:14:07.949Z,23.18
2018-06-09T22:16:36.855Z,23.16
2018-06-09T22:19:05.990Z,23.13
2018-06-09T22:21:34.919Z,23.13
2018-06-09T22:24:03.888Z,23.11
2018-06-09T22:26:33.188Z,23.07
2018-06-09T22:29:02.128Z,23.06
2018-06-09T22:31:31.145Z,23.11
2018-06-09T22:34:00.179Z,23.10
2018-06-09T22:36:29.132Z,23.10
2018-06-09T22:38:58.059Z,23.10
2018-06-09T22:41:27.102Z,23.08
2018-06-09T22:43:56.089Z,23.04
2018-06-09T22:46:25.008Z,23.05
2018-06-09T22:48:54.204Z,23.09
2018-06-09T22:51:23.216Z,23.08
2018-06-09T22:53:52.133Z,23.10
2018-06-09T22:56:22.096Z,23.08
2018-06-09T22:58:51.415Z,23.08
2018-06-09T23:01:20.979Z,23.06
2018-06-09T23:03:49.948Z,23.04
2018-06-09T23:06:18.871Z,23.03
2018-06-09T23:08:47.775Z,23.01
2018-06-09T23:11:16.767Z,23.02
2018-06-09T23:13:46.438Z,23.05
2018-06-09T23:16:15.355Z,23.08
2018-06-09T23:18:44.431Z,23.10
2018-06-09T23:21:13.330Z,23.10
2018-06-09T23:23:42.251Z,23.09
2018-06-09T23:26:11.245Z,23.08
2018-06-09T23:28:40.294Z,23.07
2018-06-09T23:31:09.179Z,23.09
2018-06-09T23:33:39.163Z,23.10
2018-06-09T23:36:08.091Z,23.14
2018-06-09T23:38:37.011Z,23.15
2018-06-09T23:41:07.135Z,23.17
2018-06-09T23:43:36.072Z,23.19
2018-06-09T23:46:05.003Z,23.19
2018-06-09T23:48:33.976Z,23.17
2018-06-09T23:51:02.910Z,23.15
2018-06-09T23:53:31.822Z,23.05
2018-06-09T23:56:00.862Z,23.02
2018-06-09T23:58:29.840Z,22.94
